sensor_id;sensor_type;location;lat;lon;timestamp;P1;durP1;ratioP1;P2;durP2;ratioP2
11228;SDS011;5671;47.936;8.716;2022-12-18T00:01:24;22.33;;;15.30;;
11228;SDS011;5671;47.936;8.716;2022-12-18T00:03:52;24.58;;;17.55;;
11228;SDS011;5671;47.936;8.716;2022-12-18T00:06:20;24.77;;;16.80;;
11228;SDS011;5671;47.936;8.716;2022-12-18T00:08:48;23.95;;;16.60;;
11228;SDS011;5671;47.936;8.716;2022-12-18T00:11:16;26.05;;;17.00;;
11228;SDS011;5671;47.936;8.716;2022-12-18T00:13:44;27.65;;;17.58;;
11228;SDS011;5671;47.936;8.716;2022-12-18T00:16:13;26.38;;;17.60;;
11228;SDS011;5671;47.936;8.716;2022-12-18T00:18:41;27.20;;;18.30;;
11228;SDS011;5671;47.936;8.716;2022-12-18T00:21:09;24.90;;;16.90;;
11228;SDS011;5671;47.936;8.716;2022-12-18T00:23:38;23.35;;;16.50;;
11228;SDS011;5671;47.936;8.716;2022-12-18T00:26:07;26.83;;;17.75;;
11228;SDS011;5671;47.936;8.716;2022-12-18T00:28:37;23.88;;;16.92;;
11228;SDS011;5671;47.936;8.716;2022-12-18T00:31:05;25.90;;;16.92;;
11228;SDS011;5671;47.936;8.716;2022-12-18T00:33:35;26.58;;;18.25;;
11228;SDS011;5671;47.936;8.716;2022-12-18T00:36:03;25.70;;;17.52;;
11228;SDS011;5671;47.936;8.716;2022-12-18T00:38:31;29.65;;;18.70;;
11228;SDS011;5671;47.936;8.716;2022-12-18T00:40:58;26.85;;;17.45;;
11228;SDS011;5671;47.936;8.716;2022-12-18T00:43:25;25.20;;;16.90;;
11228;SDS011;5671;47.936;8.716;2022-12-18T00:45:52;27.42;;;17.67;;
11228;SDS011;5671;47.936;8.716;2022-12-18T00:48:19;26.17;;;16.85;;
11228;SDS011;5671;47.936;8.716;2022-12-18T00:50:48;25.58;;;16.90;;
11228;SDS011;5671;47.936;8.716;2022-12-18T00:53:15;26.90;;;17.35;;
11228;SDS011;5671;47.936;8.716;2022-12-18T00:55:42;28.35;;;18.08;;
11228;SDS011;5671;47.936;8.716;2022-12-18T00:58:09;24.60;;;17.67;;
11228;SDS011;5671;47.936;8.716;2022-12-18T01:00:37;27.60;;;18.05;;
11228;SDS011;5671;47.936;8.716;2022-12-18T01:03:04;27.83;;;18.60;;
11228;SDS011;5671;47.936;8.716;2022-12-18T01:05:32;26.00;;;18.50;;
11228;SDS011;5671;47.936;8.716;2022-12-18T01:08:00;27.40;;;18.48;;
11228;SDS011;5671;47.936;8.716;2022-12-18T01:10:27;27.40;;;17.80;;
11228;SDS011;5671;47.936;8.716;2022-12-18T01:12:53;28.67;;;16.88;;
11228;SDS011;5671;47.936;8.716;2022-12-18T01:15:21;29.77;;;17.98;;
11228;SDS011;5671;47.936;8.716;2022-12-18T01:17:48;25.23;;;17.52;;
11228;SDS011;5671;47.936;8.716;2022-12-18T01:20:15;25.65;;;17.10;;
11228;SDS011;5671;47.936;8.716;2022-12-18T01:22:41;25.17;;;17.90;;
11228;SDS011;5671;47.936;8.716;2022-12-18T01:25:10;24.67;;;17.38;;
11228;SDS011;5671;47.936;8.716;2022-12-18T01:27:37;26.98;;;17.15;;
11228;SDS011;5671;47.936;8.716;2022-12-18T01:30:04;26.23;;;17.70;;
11228;SDS011;5671;47.936;8.716;2022-12-18T01:32:31;28.13;;;17.17;;
11228;SDS011;5671;47.936;8.716;2022-12-18T01:34:58;26.48;;;17.65;;
11228;SDS011;5671;47.936;8.716;2022-12-18T01:37:25;25.60;;;16.48;;
11228;SDS011;5671;47.936;8.716;2022-12-18T01:39:52;26.88;;;18.02;;
11228;SDS011;5671;47.936;8.716;2022-12-18T01:42:21;26.58;;;17.33;;
11228;SDS011;5671;47.936;8.716;2022-12-18T01:44:53;24.45;;;16.17;;
11228;SDS011;5671;47.936;8.716;2022-12-18T01:47:27;25.55;;;17.08;;
11228;SDS011;5671;47.936;8.716;2022-12-18T01:49:58;25.30;;;15.93;;
11228;SDS011;5671;47.936;8.716;2022-12-18T01:52:28;24.60;;;16.00;;
11228;SDS011;5671;47.936;8.716;2022-12-18T01:54:56;26.98;;;16.95;;
11228;SDS011;5671;47.936;8.716;2022-12-18T01:57:25;23.48;;;15.60;;
11228;SDS011;5671;47.936;8.716;2022-12-18T01:59:53;29.63;;;17.77;;
11228;SDS011;5671;47.936;8.716;2022-12-18T02:02:25;28.17;;;17.55;;
11228;SDS011;5671;47.936;8.716;2022-12-18T02:04:53;27.92;;;17.55;;
11228;SDS011;5671;47.936;8.716;2022-12-18T02:07:22;23.10;;;15.73;;
11228;SDS011;5671;47.936;8.716;2022-12-18T02:09:59;26.15;;;16.38;;
11228;SDS011;5671;47.936;8.716;2022-12-18T02:12:33;24.42;;;15.73;;
11228;SDS011;5671;47.936;8.716;2022-12-18T02:15:10;28.77;;;16.92;;
11228;SDS011;5671;47.936;8.716;2022-12-18T02:17:42;24.83;;;16.77;;
11228;SDS011;5671;47.936;8.716;2022-12-18T02:20:14;25.67;;;17.38;;
11228;SDS011;5671;47.936;8.716;2022-12-18T02:22:49;27.35;;;16.73;;
11228;SDS011;5671;47.936;8.716;2022-12-18T02:25:30;29.17;;;16.73;;
11228;SDS011;5671;47.936;8.716;2022-12-18T02:28:09;25.38;;;16.02;;
11228;SDS011;5671;47.936;8.716;2022-12-18T02:30:39;25.35;;;15.90;;
11228;SDS011;5671;47.936;8.716;2022-12-18T02:33:08;26.08;;;16.77;;
11228;SDS011;5671;47.936;8.716;2022-12-18T02:35:38;24.73;;;16.08;;
11228;SDS011;5671;47.936;8.716;2022-12-18T02:38:07;23.00;;;15.75;;
11228;SDS011;5671;47.936;8.716;2022-12-18T02:40:35;25.55;;;16.13;;
11228;SDS011;5671;47.936;8.716;2022-12-18T02:43:08;24.90;;;16.85;;
11228;SDS011;5671;47.936;8.716;2022-12-18T02:45:37;26.40;;;17.20;;
11228;SDS011;5671;47.936;8.716;2022-12-18T02:48:13;25.40;;;16.83;;
11228;SDS011;5671;47.936;8.716;2022-12-18T02:50:41;24.83;;;16.45;;
11228;SDS011;5671;47.936;8.716;2022-12-18T02:53:15;26.40;;;16.63;;
11228;SDS011;5671;47.936;8.716;2022-12-18T02:55:56;25.05;;;16.17;;
11228;SDS011;5671;47.936;8.716;2022-12-18T02:58:30;27.15;;;16.90;;
11228;SDS011;5671;47.936;8.716;2022-12-18T03:01:07;22.70;;;15.98;;
11228;SDS011;5671;47.936;8.716;2022-12-18T03:03:40;27.58;;;16.27;;
11228;SDS011;5671;47.936;8.716;2022-12-18T03:06:12;27.33;;;16.00;;
11228;SDS011;5671;47.936;8.716;2022-12-18T03:08:45;24.73;;;15.07;;
11228;SDS011;5671;47.936;8.716;2022-12-18T03:11:14;24.52;;;15.77;;
11228;SDS011;5671;47.936;8.716;2022-12-18T03:14:03;26.25;;;15.55;;
11228;SDS011;5671;47.936;8.716;2022-12-18T03:16:33;28.33;;;16.60;;
11228;SDS011;5671;47.936;8.716;2022-12-18T03:19:02;24.73;;;16.08;;
11228;SDS011;5671;47.936;8.716;2022-12-18T03:21:33;27.23;;;15.95;;
11228;SDS011;5671;47.936;8.716;2022-12-18T03:24:04;26.05;;;15.85;;
11228;SDS011;5671;47.936;8.716;2022-12-18T03:26:33;26.20;;;16.25;;
11228;SDS011;5671;47.936;8.716;2022-12-18T03:29:04;28.80;;;17.35;;
11228;SDS011;5671;47.936;8.716;2022-12-18T03:31:35;25.58;;;15.05;;
11228;SDS011;5671;47.936;8.716;2022-12-18T03:34:08;25.35;;;15.02;;
11228;SDS011;5671;47.936;8.716;2022-12-18T03:36:39;24.67;;;14.73;;
11228;SDS011;5671;47.936;8.716;2022-12-18T03:39:06;20.98;;;13.73;;
11228;SDS011;5671;47.936;8.716;2022-12-18T03:41:34;24.15;;;14.30;;
11228;SDS011;5671;47.936;8.716;2022-12-18T03:44:11;27.02;;;15.32;;
11228;SDS011;5671;47.936;8.716;2022-12-18T03:46:41;23.45;;;14.02;;
11228;SDS011;5671;47.936;8.716;2022-12-18T03:49:14;24.05;;;13.90;;
11228;SDS011;5671;47.936;8.716;2022-12-18T03:51:50;22.58;;;14.48;;
11228;SDS011;5671;47.936;8.716;2022-12-18T03:54:21;21.90;;;13.65;;
11228;SDS011;5671;47.936;8.716;2022-12-18T03:56:51;21.08;;;13.40;;
11228;SDS011;5671;47.936;8.716;2022-12-18T03:59:25;18.98;;;12.50;;
11228;SDS011;5671;47.936;8.716;2022-12-18T04:01:55;22.73;;;13.98;;
11228;SDS011;5671;47.936;8.716;2022-12-18T04:04:23;24.60;;;13.93;;
11228;SDS011;5671;47.936;8.716;2022-12-18T04:06:52;20.70;;;13.95;;
11228;SDS011;5671;47.936;8.716;2022-12-18T04:09:20;21.67;;;14.43;;
11228;SDS011;5671;47.936;8.716;2022-12-18T04:11:47;22.30;;;13.13;;
11228;SDS011;5671;47.936;8.716;2022-12-18T04:14:14;20.45;;;13.70;;
11228;SDS011;5671;47.936;8.716;2022-12-18T04:16:42;21.00;;;13.32;;
11228;SDS011;5671;47.936;8.716;2022-12-18T04:19:09;22.50;;;14.48;;
11228;SDS011;5671;47.936;8.716;2022-12-18T04:21:36;24.73;;;14.63;;
11228;SDS011;5671;47.936;8.716;2022-12-18T04:24:03;22.00;;;14.25;;
11228;SDS011;5671;47.936;8.716;2022-12-18T04:26:30;18.60;;;12.82;;
11228;SDS011;5671;47.936;8.716;2022-12-18T04:28:57;19.73;;;13.02;;
11228;SDS011;5671;47.936;8.716;2022-12-18T04:31:23;20.67;;;13.82;;
11228;SDS011;5671;47.936;8.716;2022-12-18T04:33:52;20.75;;;13.32;;
11228;SDS011;5671;47.936;8.716;2022-12-18T04:36:19;22.38;;;13.55;;
11228;SDS011;5671;47.936;8.716;2022-12-18T04:38:46;21.38;;;13.80;;
11228;SDS011;5671;47.936;8.716;2022-12-18T04:41:13;40.72;;;16.35;;
11228;SDS011;5671;47.936;8.716;2022-12-18T04:43:39;22.40;;;13.35;;
11228;SDS011;5671;47.936;8.716;2022-12-18T04:46:07;25.17;;;14.60;;
11228;SDS011;5671;47.936;8.716;2022-12-18T04:48:34;24.75;;;14.95;;
11228;SDS011;5671;47.936;8.716;2022-12-18T04:51:03;28.48;;;15.68;;
11228;SDS011;5671;47.936;8.716;2022-12-18T04:53:33;25.65;;;14.95;;
11228;SDS011;5671;47.936;8.716;2022-12-18T04:56:03;25.65;;;15.38;;
11228;SDS011;5671;47.936;8.716;2022-12-18T04:58:31;20.55;;;14.05;;
11228;SDS011;5671;47.936;8.716;2022-12-18T05:00:58;22.20;;;14.20;;
11228;SDS011;5671;47.936;8.716;2022-12-18T05:03:25;23.25;;;14.10;;
11228;SDS011;5671;47.936;8.716;2022-12-18T05:05:52;26.83;;;15.30;;
11228;SDS011;5671;47.936;8.716;2022-12-18T05:08:20;26.60;;;15.65;;
11228;SDS011;5671;47.936;8.716;2022-12-18T05:10:47;22.92;;;15.30;;
11228;SDS011;5671;47.936;8.716;2022-12-18T05:13:14;25.13;;;15.30;;
11228;SDS011;5671;47.936;8.716;2022-12-18T05:15:40;26.65;;;16.13;;
11228;SDS011;5671;47.936;8.716;2022-12-18T05:18:07;27.58;;;16.73;;
11228;SDS011;5671;47.936;8.716;2022-12-18T05:20:34;30.70;;;16.83;;
11228;SDS011;5671;47.936;8.716;2022-12-18T05:23:01;27.92;;;16.42;;
11228;SDS011;5671;47.936;8.716;2022-12-18T05:25:29;28.27;;;16.05;;
11228;SDS011;5671;47.936;8.716;2022-12-18T05:27:56;27.45;;;14.98;;
11228;SDS011;5671;47.936;8.716;2022-12-18T05:30:23;26.45;;;15.73;;
11228;SDS011;5671;47.936;8.716;2022-12-18T05:32:50;24.35;;;14.60;;
11228;SDS011;5671;47.936;8.716;2022-12-18T05:35:17;25.73;;;15.27;;
11228;SDS011;5671;47.936;8.716;2022-12-18T05:37:43;29.08;;;17.33;;
11228;SDS011;5671;47.936;8.716;2022-12-18T05:40:11;26.25;;;15.40;;
11228;SDS011;5671;47.936;8.716;2022-12-18T05:42:39;26.05;;;16.15;;
11228;SDS011;5671;47.936;8.716;2022-12-18T05:45:06;30.27;;;16.95;;
11228;SDS011;5671;47.936;8.716;2022-12-18T05:47:34;26.70;;;16.05;;
11228;SDS011;5671;47.936;8.716;2022-12-18T05:50:00;24.38;;;15.43;;
11228;SDS011;5671;47.936;8.716;2022-12-18T05:52:27;26.88;;;16.67;;
11228;SDS011;5671;47.936;8.716;2022-12-18T05:54:54;27.33;;;17.02;;
11228;SDS011;5671;47.936;8.716;2022-12-18T05:57:21;33.35;;;17.27;;
11228;SDS011;5671;47.936;8.716;2022-12-18T05:59:49;26.98;;;16.45;;
11228;SDS011;5671;47.936;8.716;2022-12-18T06:02:16;26.95;;;15.98;;
11228;SDS011;5671;47.936;8.716;2022-12-18T06:04:42;26.80;;;15.85;;
11228;SDS011;5671;47.936;8.716;2022-12-18T06:07:09;30.27;;;17.10;;
11228;SDS011;5671;47.936;8.716;2022-12-18T06:09:36;29.73;;;16.95;;
11228;SDS011;5671;47.936;8.716;2022-12-18T06:12:03;30.17;;;16.33;;
11228;SDS011;5671;47.936;8.716;2022-12-18T06:14:30;29.02;;;16.92;;
11228;SDS011;5671;47.936;8.716;2022-12-18T06:16:58;30.40;;;16.70;;
11228;SDS011;5671;47.936;8.716;2022-12-18T06:19:25;27.63;;;16.73;;
11228;SDS011;5671;47.936;8.716;2022-12-18T06:21:52;26.15;;;16.15;;
11228;SDS011;5671;47.936;8.716;2022-12-18T06:24:19;31.77;;;16.88;;
11228;SDS011;5671;47.936;8.716;2022-12-18T06:26:46;28.92;;;17.23;;
11228;SDS011;5671;47.936;8.716;2022-12-18T06:29:13;28.75;;;16.33;;
11228;SDS011;5671;47.936;8.716;2022-12-18T06:31:39;24.33;;;16.33;;
11228;SDS011;5671;47.936;8.716;2022-12-18T06:34:08;27.65;;;16.30;;
11228;SDS011;5671;47.936;8.716;2022-12-18T06:36:34;29.25;;;16.88;;
11228;SDS011;5671;47.936;8.716;2022-12-18T06:39:01;30.95;;;16.85;;
11228;SDS011;5671;47.936;8.716;2022-12-18T06:41:28;26.13;;;16.05;;
11228;SDS011;5671;47.936;8.716;2022-12-18T06:43:55;28.83;;;17.20;;
11228;SDS011;5671;47.936;8.716;2022-12-18T06:46:23;27.65;;;16.70;;
11228;SDS011;5671;47.936;8.716;2022-12-18T06:48:50;29.23;;;16.52;;
11228;SDS011;5671;47.936;8.716;2022-12-18T06:51:20;28.33;;;16.77;;
11228;SDS011;5671;47.936;8.716;2022-12-18T06:53:47;22.25;;;14.90;;
11228;SDS011;5671;47.936;8.716;2022-12-18T06:56:17;31.70;;;17.05;;
11228;SDS011;5671;47.936;8.716;2022-12-18T06:58:44;34.35;;;16.98;;
11228;SDS011;5671;47.936;8.716;2022-12-18T07:01:11;27.55;;;15.98;;
11228;SDS011;5671;47.936;8.716;2022-12-18T07:03:39;29.95;;;16.48;;
11228;SDS011;5671;47.936;8.716;2022-12-18T07:06:15;28.45;;;16.10;;
11228;SDS011;5671;47.936;8.716;2022-12-18T07:08:44;28.40;;;16.42;;
11228;SDS011;5671;47.936;8.716;2022-12-18T07:11:12;28.02;;;16.58;;
11228;SDS011;5671;47.936;8.716;2022-12-18T07:13:39;28.88;;;17.23;;
11228;SDS011;5671;47.936;8.716;2022-12-18T07:16:06;29.25;;;16.63;;
11228;SDS011;5671;47.936;8.716;2022-12-18T07:18:35;34.22;;;17.88;;
11228;SDS011;5671;47.936;8.716;2022-12-18T07:21:02;28.20;;;17.30;;
11228;SDS011;5671;47.936;8.716;2022-12-18T07:23:31;31.63;;;18.05;;
11228;SDS011;5671;47.936;8.716;2022-12-18T07:26:01;31.30;;;16.73;;
11228;SDS011;5671;47.936;8.716;2022-12-18T07:28:29;27.33;;;16.58;;
11228;SDS011;5671;47.936;8.716;2022-12-18T07:30:56;31.30;;;17.75;;
11228;SDS011;5671;47.936;8.716;2022-12-18T07:33:23;29.17;;;17.35;;
11228;SDS011;5671;47.936;8.716;2022-12-18T07:35:50;37.78;;;18.80;;
11228;SDS011;5671;47.936;8.716;2022-12-18T07:38:17;33.47;;;18.02;;
11228;SDS011;5671;47.936;8.716;2022-12-18T07:40:44;25.55;;;16.00;;
11228;SDS011;5671;47.936;8.716;2022-12-18T07:43:12;30.30;;;18.52;;
11228;SDS011;5671;47.936;8.716;2022-12-18T07:45:39;32.03;;;17.40;;
11228;SDS011;5671;47.936;8.716;2022-12-18T07:48:06;34.70;;;19.13;;
11228;SDS011;5671;47.936;8.716;2022-12-18T07:50:33;28.52;;;17.40;;
11228;SDS011;5671;47.936;8.716;2022-12-18T07:52:59;33.72;;;18.17;;
11228;SDS011;5671;47.936;8.716;2022-12-18T07:55:28;30.20;;;18.05;;
11228;SDS011;5671;47.936;8.716;2022-12-18T07:57:55;30.77;;;17.77;;
11228;SDS011;5671;47.936;8.716;2022-12-18T08:00:23;31.45;;;18.00;;
11228;SDS011;5671;47.936;8.716;2022-12-18T08:02:50;30.30;;;17.30;;
11228;SDS011;5671;47.936;8.716;2022-12-18T08:05:17;34.92;;;18.98;;
11228;SDS011;5671;47.936;8.716;2022-12-18T08:07:44;30.52;;;18.30;;
11228;SDS011;5671;47.936;8.716;2022-12-18T08:10:10;29.08;;;16.85;;
11228;SDS011;5671;47.936;8.716;2022-12-18T08:12:37;27.23;;;16.05;;
11228;SDS011;5671;47.936;8.716;2022-12-18T08:15:05;36.25;;;17.98;;
11228;SDS011;5671;47.936;8.716;2022-12-18T08:17:34;28.75;;;17.98;;
11228;SDS011;5671;47.936;8.716;2022-12-18T08:20:01;28.00;;;16.75;;
11228;SDS011;5671;47.936;8.716;2022-12-18T08:22:34;32.25;;;18.00;;
11228;SDS011;5671;47.936;8.716;2022-12-18T08:25:01;31.13;;;19.02;;
11228;SDS011;5671;47.936;8.716;2022-12-18T08:27:29;30.35;;;18.50;;
11228;SDS011;5671;47.936;8.716;2022-12-18T08:29:56;31.08;;;17.50;;
11228;SDS011;5671;47.936;8.716;2022-12-18T08:32:23;30.77;;;17.27;;
11228;SDS011;5671;47.936;8.716;2022-12-18T08:34:52;30.45;;;17.55;;
11228;SDS011;5671;47.936;8.716;2022-12-18T08:37:19;32.78;;;18.02;;
11228;SDS011;5671;47.936;8.716;2022-12-18T08:39:46;39.05;;;21.88;;
11228;SDS011;5671;47.936;8.716;2022-12-18T08:42:13;28.92;;;18.05;;
11228;SDS011;5671;47.936;8.716;2022-12-18T08:44:57;29.48;;;17.98;;
11228;SDS011;5671;47.936;8.716;2022-12-18T08:47:24;29.67;;;18.98;;
11228;SDS011;5671;47.936;8.716;2022-12-18T08:49:53;29.92;;;17.75;;
11228;SDS011;5671;47.936;8.716;2022-12-18T08:52:19;28.55;;;17.48;;
11228;SDS011;5671;47.936;8.716;2022-12-18T08:54:46;26.58;;;16.92;;
11228;SDS011;5671;47.936;8.716;2022-12-18T08:57:13;24.33;;;16.73;;
11228;SDS011;5671;47.936;8.716;2022-12-18T08:59:41;28.70;;;17.08;;
11228;SDS011;5671;47.936;8.716;2022-12-18T09:02:07;27.30;;;17.10;;
11228;SDS011;5671;47.936;8.716;2022-12-18T09:04:36;27.63;;;18.40;;
11228;SDS011;5671;47.936;8.716;2022-12-18T09:07:04;27.08;;;16.48;;
11228;SDS011;5671;47.936;8.716;2022-12-18T09:09:31;30.00;;;17.95;;
11228;SDS011;5671;47.936;8.716;2022-12-18T09:11:58;29.85;;;17.42;;
11228;SDS011;5671;47.936;8.716;2022-12-18T09:14:25;28.38;;;17.60;;
11228;SDS011;5671;47.936;8.716;2022-12-18T09:16:54;28.88;;;16.50;;
11228;SDS011;5671;47.936;8.716;2022-12-18T09:19:28;27.75;;;18.05;;
11228;SDS011;5671;47.936;8.716;2022-12-18T09:21:55;26.98;;;17.67;;
11228;SDS011;5671;47.936;8.716;2022-12-18T09:24:24;31.63;;;18.70;;
11228;SDS011;5671;47.936;8.716;2022-12-18T09:26:52;29.77;;;18.88;;
11228;SDS011;5671;47.936;8.716;2022-12-18T09:29:19;38.92;;;19.35;;
11228;SDS011;5671;47.936;8.716;2022-12-18T09:31:46;29.35;;;18.20;;
11228;SDS011;5671;47.936;8.716;2022-12-18T09:34:14;30.77;;;19.88;;
11228;SDS011;5671;47.936;8.716;2022-12-18T09:36:44;28.23;;;17.80;;
11228;SDS011;5671;47.936;8.716;2022-12-18T09:39:20;28.00;;;17.90;;
11228;SDS011;5671;47.936;8.716;2022-12-18T09:41:51;28.52;;;18.00;;
11228;SDS011;5671;47.936;8.716;2022-12-18T09:44:23;31.17;;;19.08;;
11228;SDS011;5671;47.936;8.716;2022-12-18T09:46:53;30.83;;;18.73;;
11228;SDS011;5671;47.936;8.716;2022-12-18T09:49:27;31.55;;;18.15;;
11228;SDS011;5671;47.936;8.716;2022-12-18T09:51:57;27.33;;;17.67;;
11228;SDS011;5671;47.936;8.716;2022-12-18T09:54:30;31.70;;;18.35;;
11228;SDS011;5671;47.936;8.716;2022-12-18T09:57:04;31.83;;;19.40;;
11228;SDS011;5671;47.936;8.716;2022-12-18T09:59:32;31.98;;;19.80;;
11228;SDS011;5671;47.936;8.716;2022-12-18T10:02:10;30.13;;;18.58;;
11228;SDS011;5671;47.936;8.716;2022-12-18T10:04:40;30.15;;;19.27;;
11228;SDS011;5671;47.936;8.716;2022-12-18T10:07:08;29.52;;;18.70;;
11228;SDS011;5671;47.936;8.716;2022-12-18T10:09:41;30.60;;;18.92;;
11228;SDS011;5671;47.936;8.716;2022-12-18T10:12:21;28.00;;;17.92;;
11228;SDS011;5671;47.936;8.716;2022-12-18T10:14:57;28.83;;;19.00;;
11228;SDS011;5671;47.936;8.716;2022-12-18T10:17:31;30.30;;;19.42;;
11228;SDS011;5671;47.936;8.716;2022-12-18T10:20:09;33.72;;;19.25;;
11228;SDS011;5671;47.936;8.716;2022-12-18T10:22:43;30.48;;;19.52;;
11228;SDS011;5671;47.936;8.716;2022-12-18T10:25:20;30.48;;;19.20;;
11228;SDS011;5671;47.936;8.716;2022-12-18T10:27:52;29.08;;;19.75;;
11228;SDS011;5671;47.936;8.716;2022-12-18T10:30:22;29.95;;;20.35;;
11228;SDS011;5671;47.936;8.716;2022-12-18T10:32:50;32.45;;;19.75;;
11228;SDS011;5671;47.936;8.716;2022-12-18T10:35:18;31.27;;;19.80;;
11228;SDS011;5671;47.936;8.716;2022-12-18T10:37:59;31.05;;;20.27;;
11228;SDS011;5671;47.936;8.716;2022-12-18T10:40:27;28.73;;;18.45;;
11228;SDS011;5671;47.936;8.716;2022-12-18T10:43:04;27.48;;;19.05;;
11228;SDS011;5671;47.936;8.716;2022-12-18T10:45:36;28.90;;;17.92;;
11228;SDS011;5671;47.936;8.716;2022-12-18T10:48:03;27.80;;;17.55;;
11228;SDS011;5671;47.936;8.716;2022-12-18T10:50:31;28.52;;;18.42;;
11228;SDS011;5671;47.936;8.716;2022-12-18T10:53:00;27.13;;;18.73;;
11228;SDS011;5671;47.936;8.716;2022-12-18T10:55:31;26.92;;;19.52;;
11228;SDS011;5671;47.936;8.716;2022-12-18T11:01:04;30.00;;;19.17;;
11228;SDS011;5671;47.936;8.716;2022-12-18T11:03:33;30.52;;;19.15;;
11228;SDS011;5671;47.936;8.716;2022-12-18T11:06:02;29.15;;;19.60;;
11228;SDS011;5671;47.936;8.716;2022-12-18T11:08:41;28.83;;;19.00;;
11228;SDS011;5671;47.936;8.716;2022-12-18T11:11:15;29.50;;;19.08;;
11228;SDS011;5671;47.936;8.716;2022-12-18T11:13:55;28.35;;;18.55;;
11228;SDS011;5671;47.936;8.716;2022-12-18T11:16:29;27.55;;;19.15;;
11228;SDS011;5671;47.936;8.716;2022-12-18T11:19:08;29.10;;;19.67;;
11228;SDS011;5671;47.936;8.716;2022-12-18T11:21:41;26.88;;;18.10;;
11228;SDS011;5671;47.936;8.716;2022-12-18T11:24:15;29.15;;;18.80;;
11228;SDS011;5671;47.936;8.716;2022-12-18T11:26:47;28.35;;;19.23;;
11228;SDS011;5671;47.936;8.716;2022-12-18T11:29:17;29.42;;;19.63;;
11228;SDS011;5671;47.936;8.716;2022-12-18T11:31:48;29.20;;;19.27;;
11228;SDS011;5671;47.936;8.716;2022-12-18T11:34:16;28.63;;;19.77;;
11228;SDS011;5671;47.936;8.716;2022-12-18T11:36:52;27.38;;;18.65;;
11228;SDS011;5671;47.936;8.716;2022-12-18T11:39:31;30.55;;;20.55;;
11228;SDS011;5671;47.936;8.716;2022-12-18T11:42:04;29.73;;;20.60;;
11228;SDS011;5671;47.936;8.716;2022-12-18T11:44:46;31.50;;;20.33;;
11228;SDS011;5671;47.936;8.716;2022-12-18T11:47:22;31.48;;;20.70;;
11228;SDS011;5671;47.936;8.716;2022-12-18T11:50:10;31.25;;;19.95;;
11228;SDS011;5671;47.936;8.716;2022-12-18T11:52:40;30.90;;;20.17;;
11228;SDS011;5671;47.936;8.716;2022-12-18T11:55:10;29.10;;;20.33;;
11228;SDS011;5671;47.936;8.716;2022-12-18T11:57:41;31.98;;;22.52;;
11228;SDS011;5671;47.936;8.716;2022-12-18T12:00:18;31.52;;;21.00;;
11228;SDS011;5671;47.936;8.716;2022-12-18T12:05:48;31.65;;;21.58;;
11228;SDS011;5671;47.936;8.716;2022-12-18T12:08:45;33.78;;;21.98;;
11228;SDS011;5671;47.936;8.716;2022-12-18T12:11:21;33.70;;;22.05;;
11228;SDS011;5671;47.936;8.716;2022-12-18T12:14:01;39.72;;;25.70;;
11228;SDS011;5671;47.936;8.716;2022-12-18T12:16:41;53.78;;;29.20;;
11228;SDS011;5671;47.936;8.716;2022-12-18T12:19:19;43.78;;;25.67;;
11228;SDS011;5671;47.936;8.716;2022-12-18T12:22:00;28.52;;;20.33;;
11228;SDS011;5671;47.936;8.716;2022-12-18T12:24:49;30.52;;;20.80;;
11228;SDS011;5671;47.936;8.716;2022-12-18T12:27:33;31.25;;;20.95;;
11228;SDS011;5671;47.936;8.716;2022-12-18T12:30:08;29.75;;;20.08;;
11228;SDS011;5671;47.936;8.716;2022-12-18T12:32:53;31.20;;;20.50;;
11228;SDS011;5671;47.936;8.716;2022-12-18T12:35:44;31.27;;;20.65;;
11228;SDS011;5671;47.936;8.716;2022-12-18T12:38:19;33.38;;;22.52;;
11228;SDS011;5671;47.936;8.716;2022-12-18T12:40:51;33.15;;;21.92;;
11228;SDS011;5671;47.936;8.716;2022-12-18T12:43:27;34.38;;;22.90;;
11228;SDS011;5671;47.936;8.716;2022-12-18T12:45:59;33.88;;;21.80;;
11228;SDS011;5671;47.936;8.716;2022-12-18T12:48:35;31.63;;;21.67;;
11228;SDS011;5671;47.936;8.716;2022-12-18T12:51:08;32.72;;;21.75;;
11228;SDS011;5671;47.936;8.716;2022-12-18T12:53:39;32.20;;;21.80;;
11228;SDS011;5671;47.936;8.716;2022-12-18T12:56:07;33.90;;;22.42;;
11228;SDS011;5671;47.936;8.716;2022-12-18T12:58:39;34.30;;;22.02;;
11228;SDS011;5671;47.936;8.716;2022-12-18T13:01:17;33.22;;;22.42;;
11228;SDS011;5671;47.936;8.716;2022-12-18T13:03:55;32.83;;;21.92;;
11228;SDS011;5671;47.936;8.716;2022-12-18T13:06:39;35.70;;;22.00;;
11228;SDS011;5671;47.936;8.716;2022-12-18T13:09:10;32.03;;;21.63;;
11228;SDS011;5671;47.936;8.716;2022-12-18T13:11:38;29.88;;;20.85;;
11228;SDS011;5671;47.936;8.716;2022-12-18T13:14:25;33.08;;;21.10;;
11228;SDS011;5671;47.936;8.716;2022-12-18T13:17:14;30.05;;;20.73;;
11228;SDS011;5671;47.936;8.716;2022-12-18T13:19:43;29.77;;;20.58;;
11228;SDS011;5671;47.936;8.716;2022-12-18T13:22:20;31.80;;;21.27;;
11228;SDS011;5671;47.936;8.716;2022-12-18T13:24:49;31.05;;;19.50;;
11228;SDS011;5671;47.936;8.716;2022-12-18T13:36:09;34.35;;;21.20;;
11228;SDS011;5671;47.936;8.716;2022-12-18T13:38:41;28.00;;;18.77;;
11228;SDS011;5671;47.936;8.716;2022-12-18T13:41:22;31.20;;;21.52;;
11228;SDS011;5671;47.936;8.716;2022-12-18T13:43:51;29.98;;;20.65;;
11228;SDS011;5671;47.936;8.716;2022-12-18T13:46:42;30.83;;;20.83;;
11228;SDS011;5671;47.936;8.716;2022-12-18T13:49:25;30.83;;;19.75;;
11228;SDS011;5671;47.936;8.716;2022-12-18T13:51:58;27.85;;;20.20;;
11228;SDS011;5671;47.936;8.716;2022-12-18T13:54:27;31.13;;;20.85;;
11228;SDS011;5671;47.936;8.716;2022-12-18T13:56:59;29.00;;;19.25;;
11228;SDS011;5671;47.936;8.716;2022-12-18T13:59:32;30.20;;;20.40;;
11228;SDS011;5671;47.936;8.716;2022-12-18T14:02:00;29.10;;;20.08;;
11228;SDS011;5671;47.936;8.716;2022-12-18T14:04:36;29.17;;;20.80;;
11228;SDS011;5671;47.936;8.716;2022-12-18T14:07:05;29.73;;;20.02;;
11228;SDS011;5671;47.936;8.716;2022-12-18T14:09:37;27.55;;;19.75;;
11228;SDS011;5671;47.936;8.716;2022-12-18T14:12:11;30.23;;;20.95;;
11228;SDS011;5671;47.936;8.716;2022-12-18T14:14:59;29.65;;;20.73;;
11228;SDS011;5671;47.936;8.716;2022-12-18T14:17:26;31.48;;;20.88;;
11228;SDS011;5671;47.936;8.716;2022-12-18T14:19:53;32.13;;;20.23;;
11228;SDS011;5671;47.936;8.716;2022-12-18T14:22:23;29.38;;;19.40;;
11228;SDS011;5671;47.936;8.716;2022-12-18T14:27:43;28.63;;;19.40;;
11228;SDS011;5671;47.936;8.716;2022-12-18T14:30:23;28.80;;;20.50;;
11228;SDS011;5671;47.936;8.716;2022-12-18T14:35:36;29.42;;;20.38;;
11228;SDS011;5671;47.936;8.716;2022-12-18T14:38:25;26.63;;;19.48;;
11228;SDS011;5671;47.936;8.716;2022-12-18T14:40:54;29.50;;;19.45;;
11228;SDS011;5671;47.936;8.716;2022-12-18T14:43:23;31.00;;;20.85;;
11228;SDS011;5671;47.936;8.716;2022-12-18T14:45:50;28.98;;;19.38;;
11228;SDS011;5671;47.936;8.716;2022-12-18T14:48:18;26.40;;;19.65;;
11228;SDS011;5671;47.936;8.716;2022-12-18T14:50:53;29.08;;;20.10;;
11228;SDS011;5671;47.936;8.716;2022-12-18T14:53:25;30.65;;;21.70;;
11228;SDS011;5671;47.936;8.716;2022-12-18T14:55:59;31.80;;;21.70;;
11228;SDS011;5671;47.936;8.716;2022-12-18T14:58:27;30.92;;;20.98;;
11228;SDS011;5671;47.936;8.716;2022-12-18T15:00:54;28.17;;;19.88;;
11228;SDS011;5671;47.936;8.716;2022-12-18T15:03:21;32.47;;;20.70;;
11228;SDS011;5671;47.936;8.716;2022-12-18T15:05:48;32.72;;;22.40;;
11228;SDS011;5671;47.936;8.716;2022-12-18T15:08:28;31.02;;;20.33;;
11228;SDS011;5671;47.936;8.716;2022-12-18T15:10:57;31.92;;;21.48;;
11228;SDS011;5671;47.936;8.716;2022-12-18T15:13:24;28.83;;;20.10;;